METAR Data
IDs: Format: Raw Decoded Include TAF

Data at: 1430 UTC 22 Apr 2021

METAR for:KBTP (Butler Cnty/Scholter, PA, US)
Text:KBTP 221356Z AUTO 30010G17KT 270V330 10SM FEW034 BKN045 BKN055 02/M07 A3004 RMK AO2 SLP192 T00171067 FZRANO
Temperature: 1.7°C ( 35°F)
Dewpoint: -6.7°C ( 20°F) [RH = 54%]
Pressure (altimeter):30.04 inches Hg (1017.4 mb) [Sea level pressure: 1019.2 mb]
Winds:from the WNW (300 degrees) at 12 MPH (10 knots; 5.1 m/s) gusting to 20 MPH (17 knots; 8.7 m/s)
Visibility:10 or more sm (16+ km)
Ceiling:4500 feet AGL
Clouds: few clouds at 3400 feet AGL, broken clouds at 4500 feet AGL, broken clouds at 5500 feet AGL
QC Flag:automated observation with no human augmentation
Text:KBTP 221306Z AUTO 28008KT 250V310 10SM SCT028 BKN039 01/M04 A3003 RMK AO2 FZRANO
Temperature: 1.0°C ( 34°F)
Dewpoint: -4.0°C ( 25°F) [RH = 69%]
Pressure (altimeter):30.03 inches Hg (1017.0 mb)
Winds:from the W (280 degrees) at 9 MPH (8 knots; 4.1 m/s)
Visibility:10 or more sm (16+ km)
Ceiling:3900 feet AGL
Clouds: scattered clouds at 2800 feet AGL, broken clouds at 3900 feet AGL
QC Flag:automated observation with no human augmentation
Text:KBTP 221256Z AUTO 28007G18KT 250V320 10SM BKN028 02/M05 A3003 RMK AO2 SLP187 T00171050 FZRANO
Temperature: 1.7°C ( 35°F)
Dewpoint: -5.0°C ( 23°F) [RH = 61%]
Pressure (altimeter):30.03 inches Hg (1017.0 mb) [Sea level pressure: 1018.7 mb]
Winds:from the W (280 degrees) at 8 MPH (7 knots; 3.6 m/s) gusting to 21 MPH (18 knots; 9.3 m/s)
Visibility:10 or more sm (16+ km)
Ceiling:2800 feet AGL
Clouds: broken clouds at 2800 feet AGL
QC Flag:automated observation with no human augmentation